Time;durP1;ratioP1;P1;durP2;ratioP2;P2;SDS_P1;SDS_P2;PMS_P1;PMS_P2;Temp;Humidity;BMP_temperature;BMP_pressure;BME280_temperature;BME280_humidity;BME280_pressure;Samples;Min_cycle;Max_cycle;Signal;HPM_P1;HPM_P2
2023/10/03 00:01:40;;;;;;;4.28;2.97;;;;;;;;;;6182002;28;20026;-71
2023/10/03 00:04:40;;;;;;;4.93;3.08;;;;;;;;;;6196567;28;20117;-73
2023/10/03 00:07:42;;;;;;;4.43;2.77;;;;;;;;;;6173050;28;20041;-71
2023/10/03 00:10:42;;;;;;;4.55;2.72;;;;;;;;;;6201051;28;20029;-71
2023/10/03 00:13:43;;;;;;;5.57;3.17;;;;;;;;;;6222610;28;20478;-69
2023/10/03 00:16:43;;;;;;;5.45;3.10;;;;;;;;;;6214916;28;20486;-70
2023/10/03 00:19:43;;;;;;;5.33;2.97;;;;;;;;;;6172685;28;20134;-68
2023/10/03 00:22:47;;;;;;;5.57;3.17;;;;;;;;;;6182825;28;20040;-69
2023/10/03 00:25:47;;;;;;;5.63;2.88;;;;;;;;;;6202867;28;20029;-68
2023/10/03 00:28:49;;;;;;;5.30;3.20;;;;;;;;;;6197381;28;20023;-68
2023/10/03 00:31:50;;;;;;;4.82;3.10;;;;;;;;;;6169764;28;20483;-67
2023/10/03 00:34:50;;;;;;;5.05;2.85;;;;;;;;;;6194207;28;20034;-69
2023/10/03 00:37:51;;;;;;;5.17;2.67;;;;;;;;;;6196710;28;20084;-67
2023/10/03 00:40:55;;;;;;;;;;;;;;;;;;6185047;28;20026;-67
2023/10/03 00:44:01;;;;;;;5.07;2.65;;;;;;;;;;6194448;28;19910;-70
2023/10/03 00:47:01;;;;;;;5.07;2.92;;;;;;;;;;6196235;28;20479;-67
2023/10/03 00:50:04;;;;;;;7.55;3.00;;;;;;;;;;6195692;28;20035;-73
2023/10/03 00:53:09;;;;;;;6.65;3.42;;;;;;;;;;6197299;28;20041;-68
2023/10/03 00:56:09;;;;;;;4.88;3.28;;;;;;;;;;6177262;28;20536;-68
2023/10/03 00:59:10;;;;;;;4.63;3.20;;;;;;;;;;6191446;28;20022;-67
2023/10/03 01:02:10;;;;;;;5.57;3.03;;;;;;;;;;6190541;28;20050;-67
2023/10/03 01:05:18;;;;;;;4.50;2.87;;;;;;;;;;6220848;28;20037;-67
2023/10/03 01:08:18;;;;;;;4.15;2.83;;;;;;;;;;6204790;28;20480;-68
2023/10/03 01:11:18;;;;;;;4.87;3.07;;;;;;;;;;6176086;28;20049;-68
2023/10/03 01:14:19;;;;;;;4.70;3.00;;;;;;;;;;6187751;28;20285;-68
2023/10/03 01:17:20;;;;;;;3.65;2.72;;;;;;;;;;6197835;28;20085;-68
2023/10/03 01:20:29;;;;;;;5.60;3.17;;;;;;;;;;6193126;28;20046;-68
2023/10/03 01:23:33;;;;;;;4.95;3.22;;;;;;;;;;6203245;28;20091;-71
2023/10/03 01:26:33;;;;;;;4.75;3.00;;;;;;;;;;6201383;28;20063;-71
2023/10/03 01:29:34;;;;;;;5.57;3.20;;;;;;;;;;6184590;28;20030;-71
2023/10/03 01:32:36;;;;;;;4.57;3.00;;;;;;;;;;6197862;28;20030;-71
2023/10/03 01:35:37;;;;;;;5.53;3.08;;;;;;;;;;6199692;28;20042;-71
2023/10/03 01:38:37;;;;;;;5.05;3.20;;;;;;;;;;6217284;28;20034;-71
2023/10/03 01:41:38;;;;;;;5.20;3.40;;;;;;;;;;6199785;28;20462;-71
2023/10/03 01:44:38;;;;;;;5.53;3.60;;;;;;;;;;6180361;28;20030;-71
2023/10/03 01:47:45;;;;;;;4.13;3.13;;;;;;;;;;6185260;28;20546;-71
2023/10/03 01:50:45;;;;;;;5.38;3.35;;;;;;;;;;6214122;28;20079;-71
2023/10/03 01:53:45;;;;;;;6.97;3.50;;;;;;;;;;6178570;28;20065;-71
2023/10/03 01:56:45;;;;;;;5.87;3.10;;;;;;;;;;6193840;28;20026;-71
2023/10/03 01:59:46;;;;;;;4.87;3.37;;;;;;;;;;6208113;28;20030;-71
2023/10/03 02:02:49;;;;;;;6.03;3.27;;;;;;;;;;6205213;28;20030;-71
2023/10/03 02:05:50;;;;;;;5.55;3.05;;;;;;;;;;6206105;28;20042;-72
2023/10/03 02:08:50;;;;;;;5.63;3.47;;;;;;;;;;6183319;28;20053;-71
2023/10/03 02:11:51;;;;;;;4.53;2.78;;;;;;;;;;6208877;28;20470;-71
2023/10/03 02:14:53;;;;;;;5.30;2.78;;;;;;;;;;6196733;28;20487;-73
2023/10/03 02:17:55;;;;;;;6.15;3.70;;;;;;;;;;6220411;28;20064;-71
2023/10/03 02:21:01;;;;;;;5.20;3.50;;;;;;;;;;6207874;28;20046;-71
2023/10/03 02:24:01;;;;;;;4.07;3.28;;;;;;;;;;6194925;28;20045;-71
2023/10/03 02:27:06;;;;;;;5.60;2.97;;;;;;;;;;6195873;28;20027;-71
2023/10/03 02:30:08;;;;;;;5.45;2.95;;;;;;;;;;6189486;28;20030;-71
2023/10/03 02:33:15;;;;;;;4.85;3.45;;;;;;;;;;6198769;28;20242;-71
2023/10/03 02:36:15;;;;;;;5.68;3.60;;;;;;;;;;6200728;28;20423;-71
2023/10/03 02:39:24;;;;;;;4.43;3.20;;;;;;;;;;6199731;28;20029;-71
2023/10/03 02:42:26;;;;;;;6.05;3.45;;;;;;;;;;6211084;28;20034;-71
2023/10/03 02:45:26;;;;;;;;;;;;;;;;;;6200295;28;20071;-71
2023/10/03 02:48:26;;;;;;;4.20;2.70;;;;;;;;;;6204697;28;20329;-71
2023/10/03 02:51:26;;;;;;;4.63;3.37;;;;;;;;;;6190481;28;20095;-71
2023/10/03 02:54:26;;;;;;;5.30;3.70;;;;;;;;;;6176264;28;20084;-71
2023/10/03 02:57:27;;;;;;;6.83;3.17;;;;;;;;;;6190797;28;20041;-71
2023/10/03 03:00:27;;;;;;;4.07;3.00;;;;;;;;;;6185975;28;20026;-71
2023/10/03 03:03:32;;;;;;;4.68;3.13;;;;;;;;;;6181797;28;20035;-71
2023/10/03 03:06:32;;;;;;;7.13;3.17;;;;;;;;;;6182837;28;20116;-71
2023/10/03 03:09:36;;;;;;;4.77;3.00;;;;;;;;;;6218884;28;20095;-71
2023/10/03 03:12:37;;;;;;;5.97;3.35;;;;;;;;;;6196959;28;20030;-71
2023/10/03 03:15:38;;;;;;;4.47;3.15;;;;;;;;;;6181080;28;20045;-71
2023/10/03 03:18:41;;;;;;;5.13;3.03;;;;;;;;;;6191676;28;20030;-71
2023/10/03 03:21:42;;;;;;;5.32;3.25;;;;;;;;;;6193526;28;20046;-71
2023/10/03 03:24:42;;;;;;;5.07;2.87;;;;;;;;;;6197226;28;20037;-71
2023/10/03 03:27:43;;;;;;;4.03;2.80;;;;;;;;;;6203364;28;20035;-70
2023/10/03 03:30:46;;;;;;;5.20;3.00;;;;;;;;;;6178416;28;20274;-72
2023/10/03 03:33:49;;;;;;;4.57;3.13;;;;;;;;;;6289993;28;20281;-71
2023/10/03 03:36:54;;;;;;;6.38;3.50;;;;;;;;;;6191210;28;20034;-71
2023/10/03 03:39:57;;;;;;;5.65;3.20;;;;;;;;;;6202125;28;20034;-71
2023/10/03 03:42:58;;;;;;;4.20;3.08;;;;;;;;;;6187369;28;20037;-67
2023/10/03 03:45:58;;;;;;;;;;;;;;;;;;6208132;28;20042;-67
2023/10/03 03:48:58;;;;;;;4.15;2.63;;;;;;;;;;6209835;28;19913;-70
2023/10/03 03:51:58;;;;;;;4.40;2.97;;;;;;;;;;6191260;28;20545;-67
2023/10/03 03:55:03;;;;;;;4.43;3.00;;;;;;;;;;6198289;28;20023;-68
2023/10/03 03:58:12;;;;;;;5.13;3.30;;;;;;;;;;6191934;28;20038;-68
2023/10/03 04:01:19;;;;;;;4.85;3.35;;;;;;;;;;6183762;28;20066;-68
2023/10/03 04:04:20;;;;;;;7.57;3.47;;;;;;;;;;6183955;28;20392;-69
2023/10/03 04:07:20;;;;;;;6.13;3.20;;;;;;;;;;6177156;28;20037;-69
2023/10/03 04:10:22;;;;;;;4.15;3.10;;;;;;;;;;6176643;28;20034;-68
2023/10/03 04:13:22;;;;;;;4.32;3.17;;;;;;;;;;6181733;28;20398;-68
2023/10/03 04:16:28;;;;;;;5.13;2.90;;;;;;;;;;6193967;28;20118;-68
2023/10/03 04:19:28;;;;;;;4.35;3.03;;;;;;;;;;6188576;28;20067;-70
2023/10/03 04:22:28;;;;;;;4.87;2.83;;;;;;;;;;6187531;28;20114;-70
2023/10/03 04:25:29;;;;;;;3.72;2.88;;;;;;;;;;6184204;28;20123;-70
2023/10/03 04:28:31;;;;;;;;;;;;;;;;;;6199136;28;20042;-68
2023/10/03 04:31:31;;;;;;;3.85;2.13;;;;;;;;;;6189544;28;19906;-68
2023/10/03 04:34:32;;;;;;;5.57;3.07;;;;;;;;;;6176121;28;20361;-70
2023/10/03 04:37:33;;;;;;;;;;;;;;;;;;6194248;28;20378;-70
2023/10/03 04:40:36;;;;;;;3.00;2.17;;;;;;;;;;6183616;28;19921;-68
2023/10/03 04:43:37;;;;;;;4.05;2.75;;;;;;;;;;6178255;28;20072;-69
2023/10/03 04:46:37;;;;;;;6.10;2.95;;;;;;;;;;6184810;28;20038;-69
2023/10/03 04:49:38;;;;;;;5.10;2.97;;;;;;;;;;6180435;28;20056;-68
2023/10/03 04:52:38;;;;;;;4.87;2.87;;;;;;;;;;6177097;28;20110;-68
2023/10/03 04:55:38;;;;;;;5.32;3.10;;;;;;;;;;6176453;28;20121;-73
2023/10/03 04:58:41;;;;;;;4.50;3.23;;;;;;;;;;6178571;28;20039;-71
2023/10/03 05:01:41;;;;;;;5.00;2.67;;;;;;;;;;6179833;28;20501;-71
2023/10/03 05:04:42;;;;;;;6.45;2.72;;;;;;;;;;6176694;28;20026;-71
2023/10/03 05:07:42;;;;;;;4.40;2.77;;;;;;;;;;6171800;28;20039;-71
2023/10/03 05:10:43;;;;;;;4.50;2.85;;;;;;;;;;6177285;28;20066;-71
2023/10/03 05:13:45;;;;;;;3.40;2.75;;;;;;;;;;6181346;28;20628;-71
2023/10/03 05:16:45;;;;;;;4.75;2.95;;;;;;;;;;6180089;28;20039;-78
2023/10/03 05:19:46;;;;;;;7.10;3.77;;;;;;;;;;6178135;28;20050;-79
2023/10/03 05:22:46;;;;;;;4.60;3.07;;;;;;;;;;6182331;28;20019;-79
2023/10/03 05:25:46;;;;;;;6.15;3.40;;;;;;;;;;6175438;28;20546;-78
2023/10/03 05:28:47;;;;;;;5.40;3.30;;;;;;;;;;6179721;28;20392;-78
2023/10/03 05:31:48;;;;;;;5.83;3.07;;;;;;;;;;6174251;28;20030;-80
2023/10/03 05:34:49;;;;;;;5.20;3.17;;;;;;;;;;6177498;28;20038;-78
2023/10/03 05:37:50;;;;;;;5.88;2.90;;;;;;;;;;6176925;28;20488;-76
2023/10/03 05:40:51;;;;;;;5.45;3.38;;;;;;;;;;6180300;28;20053;-76
2023/10/03 05:43:52;;;;;;;5.50;3.33;;;;;;;;;;6175860;28;20399;-77
2023/10/03 05:46:55;;;;;;;5.43;3.38;;;;;;;;;;6175416;28;20033;-76
2023/10/03 05:49:55;;;;;;;6.57;3.42;;;;;;;;;;6177923;28;20084;-76
2023/10/03 05:52:55;;;;;;;6.70;4.10;;;;;;;;;;6179653;28;20035;-78
2023/10/03 05:55:56;;;;;;;6.97;3.60;;;;;;;;;;6175480;28;20045;-76
2023/10/03 05:58:59;;;;;;;6.60;3.53;;;;;;;;;;6174644;28;20352;-75
2023/10/03 06:02:01;;;;;;;5.57;3.25;;;;;;;;;;6179854;28;20080;-74
2023/10/03 06:05:01;;;;;;;8.05;3.35;;;;;;;;;;6179819;28;20475;-76
2023/10/03 06:08:01;;;;;;;4.57;3.17;;;;;;;;;;6176378;28;20037;-75
2023/10/03 06:11:03;;;;;;;4.55;2.90;;;;;;;;;;6175939;28;20034;-76
2023/10/03 06:14:08;;;;;;;5.47;3.53;;;;;;;;;;6178909;28;20030;-81
2023/10/03 06:17:08;;;;;;;4.38;3.13;;;;;;;;;;6175568;28;20023;-82
2023/10/03 06:20:14;;;;;;;6.20;3.40;;;;;;;;;;6174974;28;20461;-82
2023/10/03 06:23:15;;;;;;;4.28;3.10;;;;;;;;;;6177559;28;20087;-81
2023/10/03 06:26:18;;;;;;;4.90;3.28;;;;;;;;;;6161557;28;20046;-81
2023/10/03 06:29:20;;;;;;;6.28;3.22;;;;;;;;;;6176757;28;20041;-81
2023/10/03 06:32:21;;;;;;;4.18;2.97;;;;;;;;;;6174967;28;20050;-85
2023/10/03 06:35:21;;;;;;;4.03;2.97;;;;;;;;;;6167005;28;20030;-84
2023/10/03 06:38:23;;;;;;;5.17;2.93;;;;;;;;;;6175126;28;20276;-87
2023/10/03 06:41:25;;;;;;;6.10;3.22;;;;;;;;;;6176317;28;20027;-87
2023/10/03 06:44:26;;;;;;;5.68;3.22;;;;;;;;;;6170660;28;20046;-88
2023/10/03 06:47:26;;;;;;;7.20;3.50;;;;;;;;;;6176555;28;20448;-85
2023/10/03 06:50:26;;;;;;;5.53;3.20;;;;;;;;;;6179955;28;20110;-88
2023/10/03 06:53:26;;;;;;;5.17;3.23;;;;;;;;;;6175318;28;20034;-86
2023/10/03 06:56:32;;;;;;;5.83;3.30;;;;;;;;;;6165233;28;20458;-85
2023/10/03 06:59:33;;;;;;;6.93;3.58;;;;;;;;;;6173725;28;20421;-84
2023/10/03 07:02:33;;;;;;;4.93;3.40;;;;;;;;;;6184648;28;20038;-82
2023/10/03 07:05:34;;;;;;;8.63;3.10;;;;;;;;;;6172890;28;20534;-82
2023/10/03 07:08:34;;;;;;;6.83;3.43;;;;;;;;;;6172547;28;20042;-82
2023/10/03 07:11:35;;;;;;;4.10;2.88;;;;;;;;;;6176519;28;20035;-81
2023/10/03 07:14:36;;;;;;;5.43;3.38;;;;;;;;;;6177828;28;20521;-81
2023/10/03 07:17:37;;;;;;;8.10;3.60;;;;;;;;;;6177951;28;20041;-82
2023/10/03 07:20:38;;;;;;;5.47;3.23;;;;;;;;;;6173172;28;20039;-82
2023/10/03 07:23:39;;;;;;;5.85;3.15;;;;;;;;;;6182751;28;20384;-82
2023/10/03 07:26:39;;;;;;;6.82;3.53;;;;;;;;;;6192622;28;20039;-82
2023/10/03 07:29:42;;;;;;;5.97;4.20;;;;;;;;;;6193658;28;20074;-81
2023/10/03 07:32:43;;;;;;;5.70;3.72;;;;;;;;;;6180648;28;20019;-81
2023/10/03 07:35:44;;;;;;;6.13;3.72;;;;;;;;;;6172808;28;20029;-81
2023/10/03 07:38:48;;;;;;;5.70;3.40;;;;;;;;;;6193854;28;20069;-81
2023/10/03 07:41:51;;;;;;;4.30;2.85;;;;;;;;;;6195112;28;20460;-81
2023/10/03 07:44:52;;;;;;;5.25;3.47;;;;;;;;;;6179837;28;20031;-82
2023/10/03 07:47:52;;;;;;;5.53;3.28;;;;;;;;;;6184247;28;20026;-82
2023/10/03 07:50:52;;;;;;;6.43;3.70;;;;;;;;;;6173072;28;20065;-82
2023/10/03 07:53:53;;;;;;;;;;;;;;;;;;6187619;28;20368;-82
2023/10/03 07:56:53;;;;;;;5.83;3.10;;;;;;;;;;6194722;28;19906;-82
2023/10/03 07:59:53;;;;;;;;;;;;;;;;;;6183987;28;20023;-82
2023/10/03 08:02:53;;;;;;;3.15;2.30;;;;;;;;;;6204884;28;19910;-81
2023/10/03 08:05:57;;;;;;;6.10;3.37;;;;;;;;;;6164733;28;20022;-81
2023/10/03 08:08:59;;;;;;;5.22;3.72;;;;;;;;;;6184131;28;20061;-81
2023/10/03 08:12:00;;;;;;;7.10;3.70;;;;;;;;;;6197798;28;20026;-81
2023/10/03 08:15:00;;;;;;;5.32;3.72;;;;;;;;;;6195543;28;20030;-81
2023/10/03 08:18:00;;;;;;;;;;;;;;;;;;6199369;28;20101;-81
2023/10/03 08:21:03;;;;;;;4.33;3.17;;;;;;;;;;6198168;28;19917;-82
2023/10/03 08:24:09;;;;;;;7.18;3.63;;;;;;;;;;6184153;28;20531;-82
2023/10/03 08:27:18;;;;;;;5.55;3.03;;;;;;;;;;6192813;28;20113;-82
2023/10/03 08:30:28;;;;;;;6.63;3.15;;;;;;;;;;6181780;28;20029;-81
2023/10/03 08:33:34;;;;;;;5.60;3.47;;;;;;;;;;6159372;28;20034;-82
2023/10/03 08:36:37;;;;;;;5.80;3.70;;;;;;;;;;6194096;28;20304;-82
2023/10/03 08:39:38;;;;;;;6.00;3.45;;;;;;;;;;6184673;28;20023;-82
2023/10/03 08:42:43;;;;;;;5.20;3.70;;;;;;;;;;6182384;28;20414;-82
2023/10/03 08:45:52;;;;;;;5.18;3.53;;;;;;;;;;6178385;28;20399;-81
2023/10/03 08:48:54;;;;;;;6.22;3.22;;;;;;;;;;6169867;28;20022;-84
2023/10/03 08:51:54;;;;;;;5.10;3.30;;;;;;;;;;6178464;28;20079;-83
2023/10/03 08:54:55;;;;;;;;;;;;;;;;;;6189714;28;20030;-83
2023/10/03 08:58:00;;;;;;;5.20;3.22;;;;;;;;;;6186248;28;19912;-82
2023/10/03 09:01:02;;;;;;;5.95;3.28;;;;;;;;;;6193750;28;20034;-82
2023/10/03 09:04:05;;;;;;;4.78;3.17;;;;;;;;;;6185148;28;20055;-81
2023/10/03 09:07:11;;;;;;;5.57;3.35;;;;;;;;;;6173655;28;20034;-81
2023/10/03 09:10:22;;;;;;;5.88;3.75;;;;;;;;;;6207581;28;20053;-82
2023/10/03 09:13:25;;;;;;;;;;;;;;;;;;6246773;28;20030;-81
2023/10/03 09:16:26;;;;;;;4.80;3.17;;;;;;;;;;6179463;28;19914;-82
2023/10/03 09:19:45;;;;;;;6.50;3.05;;;;;;;;;;6193551;28;20513;-82
2023/10/03 09:22:46;;;;;;;4.78;3.30;;;;;;;;;;6195851;28;20038;-82
2023/10/03 09:25:52;;;;;;;;;;;;;;;;;;6214987;28;20045;-82
2023/10/03 09:28:52;;;;;;;4.07;2.78;;;;;;;;;;6191539;28;19910;-82
2023/10/03 09:31:57;;;;;;;;;;;;;;;;;;6189734;28;20037;-82
2023/10/03 09:34:57;;;;;;;4.90;3.00;;;;;;;;;;6200389;28;19906;-82
2023/10/03 09:37:58;;;;;;;;;;;;;;;;;;6200949;28;20021;-82
2023/10/03 09:40:59;;;;;;;3.47;2.47;;;;;;;;;;6200301;28;19906;-82
2023/10/03 09:44:00;;;;;;;5.65;3.50;;;;;;;;;;6180914;28;20035;-75
2023/10/03 09:47:06;;;;;;;;;;;;;;;;;;6175242;28;20041;-76
2023/10/03 09:50:08;;;;;;;5.45;3.15;;;;;;;;;;6178008;28;20322;-77
2023/10/03 09:53:15;;;;;;;4.70;3.25;;;;;;;;;;6176574;28;20571;-77
2023/10/03 09:56:19;;;;;;;6.32;3.65;;;;;;;;;;6173293;28;20031;-77
2023/10/03 09:59:20;;;;;;;6.13;3.33;;;;;;;;;;6174420;28;20046;-78
2023/10/03 10:02:30;;;;;;;5.95;3.83;;;;;;;;;;6204566;28;20054;-77
2023/10/03 10:05:30;;;;;;;5.97;4.00;;;;;;;;;;6191552;28;20041;-77
2023/10/03 10:08:34;;;;;;;6.28;3.65;;;;;;;;;;6185119;28;20030;-76
2023/10/03 10:11:55;;;;;;;5.20;3.60;;;;;;;;;;6188169;28;20133;-77
2023/10/03 10:15:01;;;;;;;4.77;3.43;;;;;;;;;;6187116;28;20049;-77
2023/10/03 10:18:01;;;;;;;7.22;4.05;;;;;;;;;;6193653;28;20068;-78
2023/10/03 10:21:22;;;;;;;5.30;3.47;;;;;;;;;;6195145;28;20507;-77
2023/10/03 10:24:27;;;;;;;5.60;3.45;;;;;;;;;;6192058;28;20516;-77
2023/10/03 10:27:29;;;;;;;6.97;3.83;;;;;;;;;;6173997;28;20034;-77
2023/10/03 10:30:31;;;;;;;5.78;3.67;;;;;;;;;;6171953;28;20030;-76
2023/10/03 10:33:31;;;;;;;5.40;3.50;;;;;;;;;;6186107;28;20079;-76
2023/10/03 10:36:51;;;;;;;4.65;3.55;;;;;;;;;;6195278;28;20427;-77
2023/10/03 10:39:56;;;;;;;5.30;3.83;;;;;;;;;;6181733;28;20118;-77
2023/10/03 10:43:00;;;;;;;6.35;4.05;;;;;;;;;;6190260;28;20286;-78
2023/10/03 10:46:19;;;;;;;5.45;3.53;;;;;;;;;;6195511;28;20029;-76
2023/10/03 10:49:33;;;;;;;6.50;3.85;;;;;;;;;;6195464;28;20448;-76
2023/10/03 10:52:48;;;;;;;5.47;3.50;;;;;;;;;;6168492;28;20027;-76
2023/10/03 10:55:50;;;;;;;6.20;3.95;;;;;;;;;;6194704;28;20025;-77
2023/10/03 10:59:01;;;;;;;5.03;3.15;;;;;;;;;;6176289;28;20030;-76
2023/10/03 11:02:04;;;;;;;7.75;3.30;;;;;;;;;;6188807;28;20451;-77
2023/10/03 11:05:04;;;;;;;4.18;3.10;;;;;;;;;;6215855;28;20022;-77
2023/10/03 11:08:06;;;;;;;5.03;3.45;;;;;;;;;;6192514;28;20038;-77
2023/10/03 11:11:06;;;;;;;6.18;3.50;;;;;;;;;;6180151;28;20056;-78
2023/10/03 11:14:06;;;;;;;7.17;3.23;;;;;;;;;;6219594;28;20030;-77
2023/10/03 11:17:07;;;;;;;4.23;3.07;;;;;;;;;;6202229;28;20061;-77
2023/10/03 11:20:08;;;;;;;5.53;3.58;;;;;;;;;;6218388;28;20064;-76
2023/10/03 11:23:18;;;;;;;8.15;3.50;;;;;;;;;;6196974;28;20037;-77
2023/10/03 11:26:18;;;;;;;5.93;3.88;;;;;;;;;;6193910;28;20026;-77
2023/10/03 11:29:34;;;;;;;5.50;3.60;;;;;;;;;;6194667;28;20471;-77
2023/10/03 11:32:35;;;;;;;6.57;3.65;;;;;;;;;;6195163;28;20122;-77
2023/10/03 11:35:36;;;;;;;5.65;3.72;;;;;;;;;;6194273;28;20022;-76
2023/10/03 11:38:45;;;;;;;4.50;3.17;;;;;;;;;;6186977;28;20135;-76
2023/10/03 11:41:45;;;;;;;4.85;3.53;;;;;;;;;;6193729;28;20018;-76
2023/10/03 11:44:56;;;;;;;6.27;3.70;;;;;;;;;;6195374;28;20030;-78
2023/10/03 11:48:07;;;;;;;7.20;3.95;;;;;;;;;;6181849;28;20148;-77
2023/10/03 11:51:08;;;;;;;5.88;3.50;;;;;;;;;;6198448;28;20027;-77
2023/10/03 11:54:08;;;;;;;7.40;3.83;;;;;;;;;;6181534;28;20031;-77
2023/10/03 11:57:08;;;;;;;5.88;3.38;;;;;;;;;;6175192;28;20102;-76
2023/10/03 12:00:14;;;;;;;5.13;3.47;;;;;;;;;;6186030;28;20022;-76
2023/10/03 12:03:15;;;;;;;5.50;3.50;;;;;;;;;;6190280;28;20466;-84
2023/10/03 12:06:15;;;;;;;8.10;4.07;;;;;;;;;;6223083;28;20033;-83
2023/10/03 12:09:17;;;;;;;6.70;3.80;;;;;;;;;;6213943;28;20030;-83
2023/10/03 12:12:17;;;;;;;5.30;3.28;;;;;;;;;;6200751;28;20459;-83
2023/10/03 12:15:20;;;;;;;6.72;3.55;;;;;;;;;;6198643;28;20037;-84
2023/10/03 12:18:20;;;;;;;7.03;3.60;;;;;;;;;;6199782;28;20026;-83
2023/10/03 12:21:20;;;;;;;5.82;3.55;;;;;;;;;;6198620;28;20050;-83
2023/10/03 12:24:21;;;;;;;8.47;4.03;;;;;;;;;;6198320;28;20126;-83
2023/10/03 12:27:21;;;;;;;4.88;3.45;;;;;;;;;;6197094;28;20031;-83
2023/10/03 12:30:22;;;;;;;4.73;3.63;;;;;;;;;;6175273;28;20395;-84
2023/10/03 12:33:22;;;;;;;6.15;3.60;;;;;;;;;;6197865;28;20034;-83
2023/10/03 12:36:23;;;;;;;4.20;3.30;;;;;;;;;;6210912;28;20375;-83
2023/10/03 12:39:24;;;;;;;5.87;3.60;;;;;;;;;;6199312;28;20050;-83
2023/10/03 12:42:25;;;;;;;4.88;3.88;;;;;;;;;;6199687;28;20014;-83
2023/10/03 12:45:26;;;;;;;5.80;4.20;;;;;;;;;;6181433;28;20402;-83
2023/10/03 12:48:26;;;;;;;5.07;3.50;;;;;;;;;;6180966;28;20368;-83
2023/10/03 12:51:26;;;;;;;6.05;3.78;;;;;;;;;;6197292;28;20026;-83
2023/10/03 12:54:27;;;;;;;5.53;3.37;;;;;;;;;;6188547;28;20038;-84
2023/10/03 12:57:27;;;;;;;6.97;3.80;;;;;;;;;;6198654;28;20057;-83
2023/10/03 13:00:27;;;;;;;6.37;3.33;;;;;;;;;;6191300;28;20286;-83
2023/10/03 13:03:29;;;;;;;4.75;3.67;;;;;;;;;;6188503;28;20058;-83
2023/10/03 13:06:30;;;;;;;3.47;2.95;;;;;;;;;;6216785;28;20135;-83
2023/10/03 13:09:30;;;;;;;5.43;3.42;;;;;;;;;;6198523;28;20137;-84
2023/10/03 13:12:31;;;;;;;5.30;3.57;;;;;;;;;;6199450;28;20027;-84
2023/10/03 13:15:32;;;;;;;4.75;3.42;;;;;;;;;;6198111;28;20010;-83
2023/10/03 13:18:33;;;;;;;5.50;3.88;;;;;;;;;;6178373;28;20018;-83
2023/10/03 13:21:35;;;;;;;4.82;3.60;;;;;;;;;;6196289;28;20112;-84
2023/10/03 13:24:36;;;;;;;6.68;3.58;;;;;;;;;;6185363;28;20041;-84
2023/10/03 13:27:37;;;;;;;5.45;3.33;;;;;;;;;;6181888;28;20418;-83
2023/10/03 13:30:37;;;;;;;6.05;3.30;;;;;;;;;;6197464;28;20029;-83
2023/10/03 13:33:38;;;;;;;5.40;3.28;;;;;;;;;;6193118;28;20022;-83
2023/10/03 13:36:39;;;;;;;4.55;3.42;;;;;;;;;;6173760;28;20080;-84
2023/10/03 13:39:39;;;;;;;5.57;3.37;;;;;;;;;;6172985;28;20031;-84
2023/10/03 13:42:40;;;;;;;3.70;3.13;;;;;;;;;;6194637;28;20463;-84
2023/10/03 13:45:40;;;;;;;5.22;3.45;;;;;;;;;;6197524;28;20285;-84
2023/10/03 13:48:40;;;;;;;4.83;3.63;;;;;;;;;;6196382;28;20027;-84
2023/10/03 13:51:41;;;;;;;4.30;3.10;;;;;;;;;;6194133;28;20026;-84
2023/10/03 13:54:42;;;;;;;5.50;3.30;;;;;;;;;;6164209;28;20472;-85
2023/10/03 13:57:44;;;;;;;6.80;3.63;;;;;;;;;;6161208;28;20022;-84
2023/10/03 14:00:44;;;;;;;3.75;3.28;;;;;;;;;;6188556;28;20505;-86
2023/10/03 14:03:46;;;;;;;4.63;3.50;;;;;;;;;;6220392;28;20030;-85
2023/10/03 14:06:47;;;;;;;6.00;3.55;;;;;;;;;;6220309;28;20113;-85
2023/10/03 14:09:48;;;;;;;5.78;3.35;;;;;;;;;;6173999;28;20528;-85
2023/10/03 14:12:48;;;;;;;4.77;3.13;;;;;;;;;;6172945;28;20027;-85
2023/10/03 14:15:48;;;;;;;4.60;3.00;;;;;;;;;;6186493;28;20470;-85
2023/10/03 14:18:50;;;;;;;5.88;3.30;;;;;;;;;;6187534;28;20254;-85
2023/10/03 14:21:50;;;;;;;6.03;3.40;;;;;;;;;;6177608;28;20143;-85
2023/10/03 14:24:51;;;;;;;6.67;3.80;;;;;;;;;;6194825;28;20030;-85
2023/10/03 14:27:51;;;;;;;3.83;3.17;;;;;;;;;;6195910;28;20297;-85
2023/10/03 14:30:53;;;;;;;4.60;3.67;;;;;;;;;;6188231;28;20019;-85
2023/10/03 14:33:53;;;;;;;3.92;3.38;;;;;;;;;;6194390;28;20280;-84
2023/10/03 14:36:53;;;;;;;9.32;3.53;;;;;;;;;;6195569;28;20022;-84
2023/10/03 14:39:55;;;;;;;4.87;3.10;;;;;;;;;;6196337;28;20371;-85
2023/10/03 14:42:55;;;;;;;6.85;3.50;;;;;;;;;;6173591;28;20274;-84
2023/10/03 14:45:55;;;;;;;4.60;3.65;;;;;;;;;;6171907;28;20034;-85
2023/10/03 14:48:55;;;;;;;5.73;3.73;;;;;;;;;;6171745;28;20089;-85
2023/10/03 14:51:56;;;;;;;5.37;3.23;;;;;;;;;;6176114;28;20242;-85
2023/10/03 14:54:58;;;;;;;5.80;3.58;;;;;;;;;;6177870;28;20269;-84
2023/10/03 14:57:58;;;;;;;5.30;3.42;;;;;;;;;;6208882;28;20112;-84
2023/10/03 15:01:04;;;;;;;4.63;3.17;;;;;;;;;;6170715;28;20031;-84
2023/10/03 15:04:05;;;;;;;5.07;3.33;;;;;;;;;;6217328;28;20029;-84
2023/10/03 15:07:05;;;;;;;6.50;3.25;;;;;;;;;;6182805;28;20134;-84
2023/10/03 15:10:07;;;;;;;4.83;3.37;;;;;;;;;;6171289;28;20027;-84
2023/10/03 15:13:07;;;;;;;3.92;2.95;;;;;;;;;;6171860;28;20030;-84
2023/10/03 15:16:08;;;;;;;4.93;3.43;;;;;;;;;;6169930;28;20376;-84
2023/10/03 15:19:08;;;;;;;5.43;3.22;;;;;;;;;;6171333;28;20299;-84
2023/10/03 15:22:11;;;;;;;4.23;3.30;;;;;;;;;;6178572;28;20133;-84
2023/10/03 15:25:13;;;;;;;4.88;3.67;;;;;;;;;;6199404;28;20321;-85
2023/10/03 15:28:14;;;;;;;4.30;3.35;;;;;;;;;;6197988;28;20034;-85
2023/10/03 15:31:24;;;;;;;4.47;3.22;;;;;;;;;;6180399;28;20034;-85
2023/10/03 15:34:24;;;;;;;;;;;;;;;;;;6175775;28;20026;-78
2023/10/03 15:37:25;;;;;;;3.78;2.92;;;;;;;;;;6173586;28;20282;-81
2023/10/03 15:40:27;;;;;;;5.73;3.13;;;;;;;;;;6187182;28;20035;-77
2023/10/03 15:43:27;;;;;;;4.28;3.17;;;;;;;;;;6223005;28;20018;-78
2023/10/03 15:46:27;;;;;;;4.30;3.40;;;;;;;;;;6206630;28;20031;-78
2023/10/03 15:49:28;;;;;;;4.13;3.20;;;;;;;;;;6178988;28;20442;-77
2023/10/03 15:52:28;;;;;;;3.25;2.88;;;;;;;;;;5843886;28;9999719;-78
2023/10/03 15:55:28;;;;;;;5.60;3.60;;;;;;;;;;6195476;28;20475;-77
2023/10/03 15:58:29;;;;;;;4.37;3.43;;;;;;;;;;6194517;28;20757;-78
2023/10/03 16:01:29;;;;;;;5.10;3.00;;;;;;;;;;6187785;28;20037;-78
2023/10/03 16:04:30;;;;;;;4.73;3.20;;;;;;;;;;6172041;28;20031;-78
2023/10/03 16:07:31;;;;;;;4.82;3.25;;;;;;;;;;6170758;28;20276;-80
2023/10/03 16:10:34;;;;;;;4.90;3.17;;;;;;;;;;6187630;28;20479;-78
2023/10/03 16:13:35;;;;;;;5.53;3.40;;;;;;;;;;6187715;28;20023;-77
2023/10/03 16:16:39;;;;;;;;;;;;;;;;;;5840139;28;9999975;-77
2023/10/03 16:19:42;;;;;;;3.60;2.83;;;;;;;;;;6195803;28;19933;-77
2023/10/03 16:22:42;;;;;;;4.13;3.13;;;;;;;;;;6189530;28;20027;-78
2023/10/03 16:25:45;;;;;;;5.73;3.80;;;;;;;;;;6187932;28;20530;-78
2023/10/03 16:28:46;;;;;;;5.00;3.70;;;;;;;;;;6188557;28;20027;-79
2023/10/03 16:31:46;;;;;;;6.73;3.60;;;;;;;;;;6187305;28;20062;-79
2023/10/03 16:34:46;;;;;;;4.47;3.50;;;;;;;;;;6197299;28;20026;-79
2023/10/03 16:37:46;;;;;;;4.93;3.13;;;;;;;;;;6176092;28;20027;-79
2023/10/03 16:40:46;;;;;;;5.10;3.17;;;;;;;;;;6195394;28;20050;-79
2023/10/03 16:43:47;;;;;;;5.32;3.83;;;;;;;;;;6187328;28;20027;-82
2023/10/03 16:46:47;;;;;;;5.70;3.83;;;;;;;;;;6185688;28;20037;-81
2023/10/03 16:49:47;;;;;;;4.33;3.30;;;;;;;;;;6187458;28;20101;-82
2023/10/03 16:52:49;;;;;;;4.70;3.60;;;;;;;;;;6180507;28;20026;-82
2023/10/03 16:55:49;;;;;;;3.78;3.03;;;;;;;;;;6182339;28;20117;-81
2023/10/03 16:58:51;;;;;;;5.32;3.47;;;;;;;;;;6182859;28;20027;-80
2023/10/03 17:01:52;;;;;;;7.40;3.88;;;;;;;;;;6190476;28;20067;-81
2023/10/03 17:04:52;;;;;;;5.45;3.80;;;;;;;;;;6207434;28;20026;-82
2023/10/03 17:07:53;;;;;;;5.93;3.67;;;;;;;;;;6173142;28;20033;-80
2023/10/03 17:10:53;;;;;;;5.40;4.18;;;;;;;;;;6158380;28;20383;-81
2023/10/03 17:13:54;;;;;;;6.90;4.00;;;;;;;;;;6174574;28;20039;-82
2023/10/03 17:16:54;;;;;;;4.93;3.50;;;;;;;;;;6177582;28;20035;-82
2023/10/03 17:19:54;;;;;;;4.60;3.53;;;;;;;;;;6179223;28;20073;-82
2023/10/03 17:22:56;;;;;;;6.63;4.05;;;;;;;;;;6172783;28;20111;-72
2023/10/03 17:25:56;;;;;;;6.88;4.45;;;;;;;;;;6175170;28;20124;-78
2023/10/03 17:28:57;;;;;;;6.15;4.68;;;;;;;;;;6174426;28;20034;-78
2023/10/03 17:32:01;;;;;;;6.40;4.32;;;;;;;;;;6177964;28;20053;-77
2023/10/03 17:35:05;;;;;;;5.03;4.00;;;;;;;;;;5831066;28;10000612;-77
2023/10/03 17:38:05;;;;;;;5.63;4.10;;;;;;;;;;6173250;28;20034;-78
2023/10/03 17:41:06;;;;;;;6.00;3.87;;;;;;;;;;6171939;28;20063;-79
2023/10/03 17:44:06;;;;;;;5.75;4.07;;;;;;;;;;6171040;28;20069;-78
2023/10/03 17:47:07;;;;;;;4.80;3.70;;;;;;;;;;6170824;28;20423;-78
2023/10/03 17:50:11;;;;;;;5.73;3.80;;;;;;;;;;6169126;28;20428;-77
2023/10/03 17:53:12;;;;;;;5.28;4.18;;;;;;;;;;6168661;28;20043;-77
2023/10/03 17:56:12;;;;;;;7.85;4.43;;;;;;;;;;6172328;28;20399;-78
2023/10/03 17:59:12;;;;;;;5.07;4.07;;;;;;;;;;6174120;28;20110;-77
2023/10/03 18:02:12;;;;;;;7.10;4.63;;;;;;;;;;6174602;28;20384;-77
2023/10/03 18:05:15;;;;;;;7.63;4.53;;;;;;;;;;6175518;28;20286;-78
2023/10/03 18:08:16;;;;;;;7.38;4.57;;;;;;;;;;6169113;28;20049;-79
2023/10/03 18:11:16;;;;;;;7.63;4.55;;;;;;;;;;6171897;28;20031;-78
2023/10/03 18:14:16;;;;;;;8.50;6.25;;;;;;;;;;6170809;28;20372;-78
2023/10/03 18:17:17;;;;;;;8.73;6.07;;;;;;;;;;6173281;28;20038;-77